Weston-Spr-Mare, United Kingdom
Current Conditions -  °F | °C
As of 8:20 AM on Friday 26 Dec 2014 (Local Time) from EGGD Reporting Station
Few Clouds Few Clouds  
Wind Chill: 33°   Ceiling: Unl
Heat Index: 37°   Visibility: 6mi
Dew Point: 36°   Wind: 6mph
Humidity: 93%   Direction: 170°S
Pressure: 30.39"   Gusts: NA
Location:  51.33°N, 2.98°W
Report Text: EGGD 260820Z 17005KT 9999 FEW033 03/02 Q1029
Loading
Personal Weather Stations






























Interactive Weather Map New forecast layout! Learn more

10-Day Weather Forecast

Advertisements
Track Severe Weather on mobile